• Join FlightAware (Why Join?)
  • Login
  • US Flag 
10:01PM EST


 

Airport Tracker/Info


-or-


 

Live Flight TrackerFlight Track Log ✈ N7256A ✈ 26-Apr-2013 ✈ KDPA - KIMT

Flight Track Log - Related Links

Times and Time Zones

All times are in EDT time to prevent confusion due to time zone crossing. See the N7256A flight status page for this flight to view local times or setup timezone preferences in your user account.

Time Position Orientation Groundspeed Altitude Reporting Facility
EDT Latitude Longitude Course Direction KTS MPH feet Rate Location/Type
02:03PM 41.9167 -88.2833 North 118 136 1,600  Level Chicago TRACON
02:04PM 41.9333 -88.3333 294° West 127 146 2,200 600 Climbing Chicago TRACON
02:05PM 41.9500 -88.3667 304° West 152 175 2,900 600 Climbing Chicago TRACON
02:06PM 42.0000 -88.3667 360° North 148 170 3,500 540 Climbing Chicago TRACON
02:07PM 42.0333 -88.3667 360° North 159 183 4,000 120 Climbing Chicago TRACON
02:08PM 42.1902 -88.2389 North  Level Estimated
02:08PM 42.0833 -88.3667 360° North 197 227 3,800  Level Chicago TRACON
02:08PM 42.0894 -88.3642 17° North 163 188 3,800 480 Level Chicago Center
02:09PM 42.1536 -88.3642 360° North 184 212 4,500 480 Climbing Chicago Center
02:10PM 42.2008 -88.3569 North 175 201 4,900 180 Climbing Chicago Center
02:11PM 42.2528 -88.3506 North 184 212 4,900  Level Chicago Center
02:12PM 42.3039 -88.3192 24° Northeast 207 238 4,900  Level Chicago Center
02:13PM 42.3508 -88.2719 37° Northeast 207 238 4,900 180 Level Chicago Center
02:14PM 42.4047 -88.2753 357° North 194 223 5,300 420 Climbing Chicago Center
02:15PM 42.4633 -88.2719 North 182 209 5,800 240 Climbing Chicago Center
02:16PM 42.5181 -88.2731 359° North 193 222 5,900  Climbing Chicago Center
02:17PM 42.5747 -88.2753 358° North 202 232 5,900  Level Chicago Center
02:18PM 42.6306 -88.2733 North 201 231 6,000 420 Climbing Chicago Center
02:19PM 42.6819 -88.2672 North 189 217 6,800 840 Climbing Chicago Center
02:20PM 42.7350 -88.2642 North 167 192 7,800 780 Climbing Chicago Center
02:21PM 42.7794 -88.2656 359° North 160 184 8,500 540 Climbing Chicago Center
02:22PM 42.8267 -88.2608 North 166 191 9,000 240 Climbing Chicago Center
02:23PM 42.8761 -88.2581 North 176 203 9,100 -60 Climbing Chicago Center
02:24PM 42.9344 -88.2525 North 205 236 8,900 -120 Descending Chicago Center
02:25PM 43.0022 -88.2489 North 209 241 8,900  Level Chicago Center
02:26PM 43.0569 -88.2481 North 199 229 8,900  Level Chicago Center
02:28PM 43.1117 -88.2486 360° North 197 227 8,900  Level Chicago Center
02:29PM 43.1656 -88.2467 North 195 224 8,900  Level Chicago Center
02:30PM 43.2203 -88.2450 North 196 226 8,900  Level Chicago Center
02:31PM 43.2833 -88.2436 North 195 224 8,900  Level Chicago Center
02:32PM 43.3378 -88.2389 North 196 226 8,900  Level Chicago Center
02:33PM 43.3922 -88.2369 North 197 227 8,900  Level Chicago Center
02:34PM 43.4475 -88.2353 North 199 229 8,900  Level Chicago Center
02:35PM 43.5103 -88.2317 North 196 226 9,000 60 Climbing Chicago Center
02:36PM 43.5631 -88.2289 North 191 220 9,100  Climbing Chicago Center
02:37PM 43.6186 -88.2269 North 199 229 9,000 -120 Descending Chicago Center
02:37PM 43.6364 -88.2256 North 199 229 9,000 -120 Level Minneapolis Center
02:38PM 43.6928 -88.2228 North 202 232 8,900  Descending Minneapolis Center
02:39PM 43.7569 -88.2189 North 198 228 9,000  Climbing Minneapolis Center
02:40PM 43.8125 -88.2186 360° North 200 230 9,000  Level Minneapolis Center
02:41PM 43.8664 -88.2233 356° North 196 226 9,000  Level Minneapolis Center
02:42PM 43.9211 -88.2175 North 197 227 9,000 -60 Level Minneapolis Center
02:43PM 43.9758 -88.2164 North 197 227 8,900  Descending Minneapolis Center
02:44PM 44.0383 -88.2117 North 193 222 9,000  Climbing Minneapolis Center
02:45PM 44.0914 -88.2106 North 190 219 9,000  Level Minneapolis Center
02:47PM 44.1472 -88.2083 North 198 228 9,000  Level Minneapolis Center
02:48PM 44.2025 -88.2036 North 198 228 9,000  Level Minneapolis Center
02:49PM 44.2583 -88.2025 North 199 229 9,000  Level Minneapolis Center
02:50PM 44.3239 -88.1989 North 201 231 9,000 -60 Level Minneapolis Center
02:51PM 44.3800 -88.1958 North 202 232 8,900  Descending Minneapolis Center
02:52PM 44.4361 -88.1936 North 201 231 9,000  Climbing Minneapolis Center
02:53PM 44.4917 -88.1906 North 200 230 9,000 -60 Level Minneapolis Center
02:54PM 44.5464 -88.1875 North 199 229 8,900  Descending Minneapolis Center
02:55PM 44.6006 -88.1844 North 196 226 9,000  Climbing Minneapolis Center
02:56PM 44.6642 -88.1814 North 197 227 9,000  Level Minneapolis Center
02:57PM 44.7189 -88.1775 North 197 227 9,000  Level Minneapolis Center
02:58PM 44.7731 -88.1747 North 194 223 9,000  Level Minneapolis Center
02:59PM 44.8261 -88.1722 North 193 222 9,000  Level Minneapolis Center
03:00PM 44.8806 -88.1703 North 196 226 9,000  Level Minneapolis Center
03:01PM 44.9353 -88.1664 North 198 228 9,000  Level Minneapolis Center
03:02PM 45.0017 -88.1636 North 199 229 9,000  Level Minneapolis Center
03:03PM 45.0575 -88.1600 North 201 231 9,000 -120 Level Minneapolis Center
03:04PM 45.1136 -88.1581 North 201 231 8,800 -540 Descending Minneapolis Center
03:05PM 45.1764 -88.1517 North 222 255 7,900 -780 Descending Minneapolis Center
03:06PM 45.2361 -88.1481 North 218 251 7,100 -840 Descending Minneapolis Center
03:07PM 45.3053 -88.1453 North 209 241 6,100 -840 Descending Minneapolis Center
03:08PM 45.3725 -88.1408 North 205 236 5,400 -780 Descending Minneapolis Center
03:09PM 45.4283 -88.1386 North 203 234 4,500 -660 Descending Minneapolis Center
03:10PM 45.4822 -88.1342 North 198 228 4,100 -360 Descending Minneapolis Center
03:12PM 45.5331 -88.1314 North 189 217 3,800 -300 Descending Minneapolis Center
03:13PM 45.5822 -88.1300 North 182 209 3,500 -300 Descending Minneapolis Center
03:14PM 45.6389 -88.1233 North 180 207 3,300 -240 Descending Minneapolis Center